Time;durP1;ratioP1;P1;durP2;ratioP2;P2;SDS_P1;SDS_P2;PMS_P1;PMS_P2;Temp;Humidity;BMP_temperature;BMP_pressure;BME280_temperature;BME280_humidity;BME280_pressure;Samples;Min_cycle;Max_cycle;Signal;HPM_P1;HPM_P2
2021/08/04 00:02:16;;;;;;;2.17;1.88;;;13.90;99.90;;;;;;4983555;28;20034;-53
2021/08/04 00:04:41;;;;;;;3.63;1.60;;;13.90;99.90;;;;;;4982067;28;20259;-52
2021/08/04 00:07:07;;;;;;;6.82;2.08;;;13.80;99.90;;;;;;4982020;28;20765;-52
2021/08/04 00:09:32;;;;;;;1.92;1.70;;;13.80;99.90;;;;;;4983133;28;20668;-50
2021/08/04 00:11:58;;;;;;;5.50;2.10;;;13.80;99.90;;;;;;4981849;28;20114;-52
2021/08/04 00:14:24;;;;;;;4.03;1.52;;;13.80;99.90;;;;;;4983187;28;20018;-55
2021/08/04 00:16:49;;;;;;;3.25;1.88;;;13.80;99.90;;;;;;4982610;28;20045;-52
2021/08/04 00:19:15;;;;;;;2.58;2.00;;;13.80;99.90;;;;;;4977660;28;20041;-52
2021/08/04 00:21:41;;;;;;;1.52;1.40;;;13.80;99.90;;;;;;4982339;28;20022;-51
2021/08/04 00:24:06;;;;;;;1.60;1.48;;;13.80;99.90;;;;;;4980220;28;20027;-52
2021/08/04 00:26:32;;;;;;;2.28;1.63;;;13.80;99.90;;;;;;4982468;28;20503;-54
2021/08/04 00:28:57;;;;;;;2.90;2.25;;;13.90;99.90;;;;;;4981824;28;20496;-52
2021/08/04 00:31:23;;;;;;;4.22;2.25;;;13.90;99.90;;;;;;4981881;28;20027;-51
2021/08/04 00:33:48;;;;;;;1.55;1.45;;;13.90;99.90;;;;;;4982975;28;20097;-55
2021/08/04 00:36:14;;;;;;;2.22;1.52;;;13.90;99.90;;;;;;4980205;28;20031;-54
2021/08/04 00:38:40;;;;;;;1.73;1.50;;;13.90;99.90;;;;;;4982614;28;20018;-53
2021/08/04 00:41:05;;;;;;;2.00;1.80;;;13.90;99.90;;;;;;4981924;28;20038;-55
2021/08/04 00:43:31;;;;;;;2.30;2.10;;;13.90;99.90;;;;;;4982311;28;20022;-52
2021/08/04 00:45:56;;;;;;;3.15;2.03;;;13.80;99.90;;;;;;4980975;28;20022;-53
2021/08/04 00:48:22;;;;;;;2.00;1.80;;;13.80;99.90;;;;;;4980702;28;20114;-52
2021/08/04 00:50:48;;;;;;;2.53;1.83;;;13.70;99.90;;;;;;4976316;28;20453;-54
2021/08/04 00:53:25;;;;;;;1.85;1.52;;;13.80;99.90;;;;;;4981073;28;20019;-55
2021/08/04 00:55:52;;;;;;;2.35;1.88;;;13.80;99.90;;;;;;4979888;28;20133;-52
2021/08/04 00:58:21;;;;;;;2.00;1.80;;;13.80;99.90;;;;;;4973993;28;20022;-53
2021/08/04 01:00:52;;;;;;;2.05;1.92;;;13.80;99.90;;;;;;4977011;28;20031;-53
2021/08/04 01:03:20;;;;;;;2.58;1.88;;;13.80;99.90;;;;;;4968026;28;20050;-53
2021/08/04 01:05:59;;;;;;;2.22;1.98;;;13.80;99.90;;;;;;4973029;28;20031;-52
2021/08/04 01:08:31;;;;;;;4.10;2.33;;;13.80;99.90;;;;;;4973846;28;20031;-52
2021/08/04 01:10:59;;;;;;;2.25;2.05;;;13.70;99.90;;;;;;4979147;28;20042;-52
2021/08/04 01:13:29;;;;;;;2.10;1.90;;;13.80;99.90;;;;;;4982749;28;20027;-52
2021/08/04 01:16:13;;;;;;;1.60;1.50;;;13.70;99.90;;;;;;4978821;28;20039;-52
2021/08/04 01:18:46;;;;;;;2.45;2.15;;;13.70;99.90;;;;;;4982056;28;20027;-55
2021/08/04 01:21:14;;;;;;;2.03;1.77;;;13.70;99.90;;;;;;4979548;28;20060;-56
2021/08/04 01:24:06;;;;;;;2.10;1.90;;;13.70;99.90;;;;;;4980473;28;20015;-51
2021/08/04 01:26:44;;;;;;;4.50;1.80;;;13.70;99.90;;;;;;4973214;28;20062;-55
2021/08/04 01:29:16;;;;;;;2.25;2.00;;;13.70;99.90;;;;;;4979795;28;20497;-52
2021/08/04 01:31:45;;;;;;;2.42;2.20;;;13.70;99.90;;;;;;4981216;28;20038;-54
2021/08/04 01:34:11;;;;;;;2.88;2.20;;;13.70;99.90;;;;;;4978277;28;20046;-52
2021/08/04 01:36:38;;;;;;;2.83;2.47;;;13.70;99.90;;;;;;4981318;28;20523;-54
2021/08/04 01:39:05;;;;;;;3.13;2.83;;;13.70;99.90;;;;;;4979070;28;20490;-54
2021/08/04 01:41:35;;;;;;;6.07;2.70;;;13.60;99.90;;;;;;4981740;28;20027;-52
2021/08/04 01:44:04;;;;;;;3.60;2.40;;;13.60;99.90;;;;;;4979706;28;20456;-51
2021/08/04 01:46:30;;;;;;;2.85;2.20;;;13.60;99.90;;;;;;4975852;28;20030;-51
2021/08/04 01:48:57;;;;;;;2.40;2.20;;;13.60;99.90;;;;;;4981618;28;20030;-52
2021/08/04 01:51:24;;;;;;;2.78;2.28;;;13.60;99.90;;;;;;4978310;28;20101;-53
2021/08/04 01:53:50;;;;;;;2.60;2.40;;;13.60;99.90;;;;;;4981237;28;20113;-52
2021/08/04 01:56:16;;;;;;;3.60;2.22;;;13.60;99.90;;;;;;4975089;28;20023;-51
2021/08/04 01:58:42;;;;;;;3.47;2.30;;;13.60;99.90;;;;;;4983212;28;20054;-53
2021/08/04 02:01:09;;;;;;;3.17;2.08;;;13.60;99.90;;;;;;4978405;28;20019;-51
2021/08/04 02:03:34;;;;;;;3.33;3.03;;;13.60;99.90;;;;;;4982914;28;20493;-51
2021/08/04 02:06:17;;;;;;;4.00;2.60;;;13.50;99.90;;;;;;4979147;28;20080;-51
2021/08/04 02:09:11;;;;;;;2.88;2.42;;;13.40;99.90;;;;;;4972960;28;20088;-54
2021/08/04 02:11:52;;;;;;;2.55;2.35;;;13.40;99.90;;;;;;4974026;28;20019;-53
2021/08/04 02:14:30;;;;;;;3.13;2.60;;;13.40;99.90;;;;;;4967388;28;20022;-51
2021/08/04 02:17:09;;;;;;;3.30;2.47;;;13.40;99.90;;;;;;4979711;28;20015;-51
2021/08/04 02:19:42;;;;;;;2.80;2.60;;;13.30;99.90;;;;;;4981036;28;20584;-51
2021/08/04 02:22:15;;;;;;;4.30;3.13;;;13.30;99.90;;;;;;4977982;28;20026;-51
2021/08/04 02:24:45;;;;;;;3.00;2.70;;;13.20;99.90;;;;;;4980545;28;20042;-51
2021/08/04 02:27:12;;;;;;;3.90;2.72;;;13.20;99.90;;;;;;4980183;28;20555;-53
2021/08/04 02:29:40;;;;;;;4.57;2.72;;;13.20;99.90;;;;;;4979654;28;20022;-55
2021/08/04 02:32:07;;;;;;;2.80;2.30;;;13.20;99.90;;;;;;4979464;28;20442;-51
2021/08/04 02:34:33;;;;;;;3.95;2.97;;;13.20;99.90;;;;;;4980397;28;20101;-52
2021/08/04 02:36:58;;;;;;;4.13;2.90;;;13.20;99.90;;;;;;4979233;28;20117;-52
2021/08/04 02:39:25;;;;;;;4.45;2.58;;;13.10;99.90;;;;;;4978080;28;20034;-52
2021/08/04 02:41:52;;;;;;;2.65;2.45;;;13.10;99.90;;;;;;4980461;28;20030;-55
2021/08/04 02:44:18;;;;;;;3.22;2.60;;;13.00;99.90;;;;;;4979456;28;20014;-51
2021/08/04 02:46:46;;;;;;;2.95;2.42;;;13.00;99.90;;;;;;4980110;28;20446;-51
2021/08/04 02:49:14;;;;;;;6.82;2.88;;;13.00;99.90;;;;;;4979668;28;20064;-51
2021/08/04 02:51:41;;;;;;;2.80;2.60;;;13.00;99.90;;;;;;4980667;28;20477;-53
2021/08/04 02:54:07;;;;;;;2.80;2.53;;;13.00;99.90;;;;;;4976757;28;20042;-55
2021/08/04 02:56:33;;;;;;;2.72;2.53;;;13.00;99.90;;;;;;4980832;28;20018;-53
2021/08/04 02:58:58;;;;;;;3.28;2.97;;;13.00;99.90;;;;;;4979304;28;20023;-52
2021/08/04 03:01:24;;;;;;;3.55;2.67;;;13.00;99.90;;;;;;4979749;28;20042;-52
2021/08/04 03:03:50;;;;;;;3.10;2.80;;;13.00;99.90;;;;;;4979176;28;20115;-53
2021/08/04 03:06:15;;;;;;;3.55;3.25;;;13.00;99.90;;;;;;4979558;28;20031;-51
2021/08/04 03:08:41;;;;;;;3.35;3.03;;;13.00;99.90;;;;;;4980658;28;20049;-54
2021/08/04 03:11:08;;;;;;;3.35;3.05;;;13.00;99.90;;;;;;4987268;28;20361;-51
2021/08/04 03:13:34;;;;;;;3.95;3.40;;;12.90;99.90;;;;;;4980205;28;20054;-51
2021/08/04 03:16:00;;;;;;;3.08;2.78;;;12.90;99.90;;;;;;4987544;28;20018;-52
2021/08/04 03:18:26;;;;;;;4.47;3.38;;;12.80;99.90;;;;;;4980911;28;20026;-51
2021/08/04 03:20:51;;;;;;;5.70;3.58;;;12.80;99.90;;;;;;4980670;28;20065;-53
2021/08/04 03:23:17;;;;;;;5.63;3.67;;;12.70;99.90;;;;;;4985644;28;20023;-51
2021/08/04 03:25:42;;;;;;;5.68;3.35;;;12.70;99.90;;;;;;4980099;28;20062;-51
2021/08/04 03:28:08;;;;;;;4.30;3.58;;;12.70;99.90;;;;;;4987685;28;20057;-52
2021/08/04 03:30:34;;;;;;;3.42;3.08;;;12.70;99.90;;;;;;4980053;28;20033;-54
2021/08/04 03:32:59;;;;;;;4.93;3.30;;;12.70;99.90;;;;;;4987978;28;20030;-54
2021/08/04 03:35:25;;;;;;;3.38;3.08;;;12.60;99.90;;;;;;4980042;28;20034;-52
2021/08/04 03:37:50;;;;;;;4.07;3.03;;;12.60;99.90;;;;;;4980274;28;20114;-55
2021/08/04 03:40:16;;;;;;;4.78;3.33;;;12.70;99.90;;;;;;4986131;28;20102;-53
2021/08/04 03:42:42;;;;;;;3.42;3.13;;;12.70;99.90;;;;;;4979072;28;20027;-52
2021/08/04 03:45:08;;;;;;;6.65;3.80;;;12.60;99.90;;;;;;4986155;28;20034;-52
2021/08/04 03:47:33;;;;;;;5.95;3.08;;;12.60;99.90;;;;;;4979957;28;20034;-54
2021/08/04 03:49:59;;;;;;;3.78;3.03;;;12.60;99.90;;;;;;4987612;28;20097;-55
2021/08/04 03:52:25;;;;;;;3.78;3.40;;;12.60;99.90;;;;;;4980107;28;20046;-54
2021/08/04 03:54:50;;;;;;;3.88;2.95;;;12.60;99.90;;;;;;4980289;28;20038;-56
2021/08/04 03:57:16;;;;;;;3.60;3.17;;;12.60;99.90;;;;;;4986007;28;20027;-52
2021/08/04 03:59:42;;;;;;;3.60;3.30;;;12.50;99.90;;;;;;4978925;28;20058;-56
2021/08/04 04:02:07;;;;;;;3.80;3.25;;;12.60;99.90;;;;;;4986498;28;20389;-54
2021/08/04 04:04:33;;;;;;;3.28;2.97;;;12.60;99.90;;;;;;4979277;28;20027;-55
2021/08/04 04:06:58;;;;;;;3.60;3.30;;;12.60;99.90;;;;;;4982866;28;20027;-53
2021/08/04 04:09:24;;;;;;;5.25;3.05;;;12.60;99.90;;;;;;4983173;28;20033;-54
2021/08/04 04:11:50;;;;;;;3.00;2.47;;;12.60;99.90;;;;;;4977624;28;20725;-53
2021/08/04 04:14:15;;;;;;;5.90;2.67;;;12.60;99.90;;;;;;4966633;28;20126;-54
2021/08/04 04:16:41;;;;;;;2.38;2.03;;;12.60;99.90;;;;;;4981965;28;20015;-55
2021/08/04 04:19:08;;;;;;;4.25;2.60;;;12.70;99.90;;;;;;4980936;28;20058;-55
2021/08/04 04:21:34;;;;;;;3.03;2.58;;;12.70;99.90;;;;;;4982261;28;20029;-55
2021/08/04 04:23:59;;;;;;;3.47;2.15;;;12.70;99.90;;;;;;4980200;28;20098;-54
2021/08/04 04:26:25;;;;;;;3.15;2.53;;;12.80;99.90;;;;;;4982422;28;20094;-51
2021/08/04 04:28:51;;;;;;;2.22;2.00;;;12.80;99.90;;;;;;4980799;28;20078;-55
2021/08/04 04:31:16;;;;;;;2.92;2.63;;;12.90;99.90;;;;;;4982619;28;20116;-52
2021/08/04 04:33:42;;;;;;;2.28;2.08;;;13.00;99.90;;;;;;4982712;28;20366;-55
2021/08/04 04:36:07;;;;;;;2.63;2.13;;;13.00;99.90;;;;;;4980474;28;20590;-54
2021/08/04 04:38:33;;;;;;;3.05;2.30;;;13.10;99.90;;;;;;4981679;28;20022;-55
2021/08/04 04:40:59;;;;;;;2.78;2.33;;;13.10;99.90;;;;;;4979977;28;20058;-53
2021/08/04 04:43:24;;;;;;;2.88;2.28;;;13.20;99.90;;;;;;4982052;28;20031;-55
2021/08/04 04:45:50;;;;;;;6.35;2.55;;;13.20;99.90;;;;;;4980188;28;20027;-57
2021/08/04 04:48:16;;;;;;;2.38;2.17;;;13.30;99.90;;;;;;4982399;28;20026;-52
2021/08/04 04:50:42;;;;;;;2.78;2.00;;;13.30;99.90;;;;;;4982037;28;20023;-54
2021/08/04 04:53:08;;;;;;;3.78;2.10;;;13.40;99.90;;;;;;4980903;28;20052;-55
2021/08/04 04:55:33;;;;;;;4.85;1.77;;;13.50;99.90;;;;;;4982156;28;20030;-57
2021/08/04 04:57:59;;;;;;;3.15;2.20;;;13.50;99.90;;;;;;4980426;28;20045;-52
2021/08/04 05:00:25;;;;;;;2.20;2.00;;;13.60;99.90;;;;;;4982576;28;20604;-56
2021/08/04 05:02:50;;;;;;;1.60;1.50;;;13.70;99.90;;;;;;4980559;28;20094;-53
2021/08/04 05:05:16;;;;;;;2.75;1.50;;;13.70;99.90;;;;;;4981820;28;20666;-55
2021/08/04 05:10:13;;;;;;;3.00;1.77;;;13.90;99.90;;;;;;5010072;23;20481;-52
2021/08/04 05:12:38;;;;;;;2.00;1.90;;;13.90;99.90;;;;;;4985696;28;20093;-51
2021/08/04 05:15:05;;;;;;;5.22;1.90;;;14.00;99.90;;;;;;4987738;28;20057;-53
2021/08/04 05:17:31;;;;;;;1.65;1.40;;;14.00;99.90;;;;;;4985003;28;20240;-53
2021/08/04 05:19:56;;;;;;;2.50;1.90;;;14.10;99.90;;;;;;4986904;28;20574;-51
2021/08/04 05:22:22;;;;;;;2.55;1.42;;;14.20;99.90;;;;;;4989671;28;20022;-50
2021/08/04 05:24:48;;;;;;;1.77;1.52;;;14.20;99.90;;;;;;4985022;28;20030;-52
2021/08/04 05:27:13;;;;;;;1.67;1.52;;;14.30;99.90;;;;;;4986021;28;20034;-50
2021/08/04 05:29:39;;;;;;;2.53;1.60;;;14.30;99.90;;;;;;4982443;28;20022;-52
2021/08/04 05:32:05;;;;;;;4.30;1.40;;;14.40;99.90;;;;;;4985741;28;20113;-49
2021/08/04 05:34:30;;;;;;;1.75;1.65;;;14.50;99.90;;;;;;4984039;28;20493;-50
2021/08/04 05:36:56;;;;;;;1.80;1.45;;;14.60;99.90;;;;;;4986244;28;20093;-51
2021/08/04 05:39:21;;;;;;;2.70;1.40;;;14.70;99.90;;;;;;4989217;28;20147;-51
2021/08/04 05:41:47;;;;;;;1.45;1.35;;;14.80;99.90;;;;;;4985735;28;20105;-51
2021/08/04 05:44:13;;;;;;;2.70;1.42;;;14.80;99.90;;;;;;4987059;28;20495;-52
2021/08/04 05:46:38;;;;;;;3.50;1.20;;;14.90;99.90;;;;;;4984662;28;20010;-49
2021/08/04 05:49:04;;;;;;;2.33;1.50;;;14.90;99.90;;;;;;4986841;28;20404;-55
2021/08/04 05:51:29;;;;;;;2.13;1.60;;;15.00;99.90;;;;;;4983850;28;20049;-52
2021/08/04 05:53:55;;;;;;;2.03;1.30;;;15.10;99.90;;;;;;4985899;28;20038;-50
2021/08/04 05:56:20;;;;;;;2.33;1.40;;;15.10;99.90;;;;;;4988892;28;20618;-49
2021/08/04 05:58:46;;;;;;;3.55;1.33;;;15.20;99.90;;;;;;4985279;28;20026;-52
2021/08/04 06:01:11;;;;;;;1.27;1.10;;;15.20;99.90;;;;;;4987603;28;20033;-51
2021/08/04 06:03:37;;;;;;;3.72;1.60;;;15.30;99.90;;;;;;4984996;28;20023;-54
2021/08/04 06:06:03;;;;;;;2.33;1.40;;;15.40;99.90;;;;;;4985273;28;20109;-55
2021/08/04 06:08:30;;;;;;;1.33;1.20;;;15.40;99.90;;;;;;4986745;28;20064;-48
2021/08/04 06:10:56;;;;;;;1.85;1.27;;;15.50;99.90;;;;;;4983557;28;20069;-52
2021/08/04 06:13:21;;;;;;;5.55;1.70;;;15.60;99.90;;;;;;4984418;28;20066;-52
2021/08/04 06:15:48;;;;;;;2.70;1.40;;;15.70;99.90;;;;;;4989141;28;20027;-51
2021/08/04 06:18:13;;;;;;;2.10;1.90;;;15.80;99.90;;;;;;4974059;28;20031;-49
2021/08/04 06:20:39;;;;;;;8.73;1.73;;;15.90;99.90;;;;;;4989028;28;20033;-50
2021/08/04 06:23:05;;;;;;;1.33;1.23;;;15.90;99.90;;;;;;4987769;28;20027;-51
2021/08/04 06:25:30;;;;;;;1.55;1.38;;;16.00;99.90;;;;;;4989123;28;20309;-48
2021/08/04 06:27:56;;;;;;;2.20;1.02;;;16.10;99.90;;;;;;4985458;28;20038;-49
2021/08/04 06:30:21;;;;;;;1.20;1.10;;;16.10;99.90;;;;;;4975887;28;20072;-49
2021/08/04 06:32:47;;;;;;;2.10;1.00;;;16.20;99.90;;;;;;4985051;28;20058;-53
2021/08/04 06:35:13;;;;;;;1.50;0.82;;;16.20;99.90;;;;;;4987091;28;20053;-53
2021/08/04 06:37:38;;;;;;;2.08;1.10;;;16.30;99.90;;;;;;4986879;28;20060;-51
2021/08/04 06:40:04;;;;;;;2.75;1.48;;;16.30;99.90;;;;;;4986528;28;20034;-51
2021/08/04 06:42:30;;;;;;;1.33;1.02;;;16.30;99.90;;;;;;4990638;28;20029;-51
2021/08/04 06:44:56;;;;;;;2.50;1.30;;;16.40;99.90;;;;;;4990625;28;20019;-51
2021/08/04 06:47:21;;;;;;;1.55;1.30;;;16.40;99.90;;;;;;4991095;28;20109;-54
2021/08/04 06:49:47;;;;;;;2.40;1.52;;;16.50;99.90;;;;;;4991224;28;20447;-51
2021/08/04 06:52:12;;;;;;;2.03;1.27;;;16.50;99.90;;;;;;4992727;28;20080;-51
2021/08/04 06:54:38;;;;;;;2.65;1.42;;;16.50;99.90;;;;;;4987323;28;20104;-51
2021/08/04 06:57:04;;;;;;;3.53;1.58;;;16.60;99.90;;;;;;4992601;28;20034;-49
2021/08/04 06:59:29;;;;;;;1.75;1.10;;;16.60;99.90;;;;;;4992383;28;20099;-49
2021/08/04 07:01:55;;;;;;;1.40;1.30;;;16.60;99.90;;;;;;4992581;28;20053;-51
2021/08/04 07:04:20;;;;;;;4.32;1.38;;;16.70;99.90;;;;;;4992353;28;20054;-51
2021/08/04 07:06:54;;;;;;;2.38;1.40;;;16.70;99.90;;;;;;4982717;28;20067;-51
2021/08/04 07:09:20;;;;;;;3.83;1.23;;;16.70;99.90;;;;;;4984624;28;20080;-49
2021/08/04 07:11:46;;;;;;;1.40;1.30;;;16.70;99.90;;;;;;4988405;28;20026;-50
2021/08/04 07:14:12;;;;;;;3.35;1.52;;;16.70;99.90;;;;;;4990763;28;20014;-54
2021/08/04 07:16:37;;;;;;;2.08;0.93;;;16.70;99.90;;;;;;4987251;28;20093;-53
2021/08/04 07:19:03;;;;;;;1.45;1.15;;;16.70;99.90;;;;;;4989867;28;20022;-52
2021/08/04 07:21:29;;;;;;;1.73;1.10;;;16.80;99.90;;;;;;4991799;28;20027;-54
2021/08/04 07:23:54;;;;;;;2.85;1.00;;;16.80;99.90;;;;;;4988439;28;20069;-55
2021/08/04 07:26:20;;;;;;;1.25;1.15;;;16.90;99.90;;;;;;4991471;28;20444;-54
2021/08/04 07:28:46;;;;;;;3.85;1.58;;;16.90;99.90;;;;;;4987732;28;20519;-53
2021/08/04 07:31:12;;;;;;;1.35;1.20;;;16.90;99.90;;;;;;4990535;28;20030;-52
2021/08/04 07:33:37;;;;;;;2.55;1.15;;;17.00;99.90;;;;;;4998031;28;20027;-52
2021/08/04 07:36:05;;;;;;;1.25;1.15;;;17.10;99.90;;;;;;4989094;28;20026;-54
2021/08/04 07:38:31;;;;;;;1.20;1.10;;;17.10;99.90;;;;;;4991833;28;20496;-54
2021/08/04 07:40:58;;;;;;;2.90;1.27;;;17.10;99.90;;;;;;4988342;28;20038;-54
2021/08/04 07:43:24;;;;;;;1.20;0.93;;;17.20;99.90;;;;;;4990491;28;20021;-50
2021/08/04 07:45:50;;;;;;;2.35;1.33;;;17.30;99.90;;;;;;4986617;28;20378;-54
2021/08/04 07:48:15;;;;;;;1.08;0.98;;;17.30;99.90;;;;;;4989388;28;20030;-56
2021/08/04 07:50:41;;;;;;;1.13;1.02;;;17.30;99.90;;;;;;4986075;28;20088;-49
2021/08/04 07:53:07;;;;;;;2.35;1.17;;;17.40;99.90;;;;;;4987715;28;20028;-54
2021/08/04 07:55:32;;;;;;;2.03;1.10;;;17.50;99.90;;;;;;4990970;28;20080;-51
2021/08/04 07:57:58;;;;;;;3.53;1.20;;;17.50;99.90;;;;;;4987183;28;20065;-53
2021/08/04 08:00:23;;;;;;;2.00;1.15;;;17.60;99.90;;;;;;4989942;28;20018;-49
2021/08/04 08:02:49;;;;;;;2.35;1.20;;;17.60;99.90;;;;;;4986579;28;20023;-50
2021/08/04 08:05:15;;;;;;;1.45;1.02;;;17.70;99.90;;;;;;4988746;28;20029;-53
2021/08/04 08:07:48;;;;;;;1.80;1.30;;;17.70;99.90;;;;;;4987759;28;20020;-55
2021/08/04 08:10:14;;;;;;;1.08;0.98;;;17.70;99.90;;;;;;4989464;28;20062;-49
2021/08/04 08:12:40;;;;;;;1.40;1.13;;;17.70;99.90;;;;;;4987110;28;20099;-53
2021/08/04 08:15:06;;;;;;;1.60;1.30;;;17.70;99.90;;;;;;4989148;28;20487;-54
2021/08/04 08:17:32;;;;;;;2.33;1.10;;;17.70;99.90;;;;;;4986091;28;20108;-52
2021/08/04 08:19:57;;;;;;;1.15;1.05;;;17.80;99.90;;;;;;4988064;28;20087;-50
2021/08/04 08:22:23;;;;;;;1.65;1.13;;;17.80;99.90;;;;;;4990902;28;20507;-49
2021/08/04 08:24:49;;;;;;;1.30;1.10;;;17.80;99.90;;;;;;4987787;28;20034;-52
2021/08/04 08:27:14;;;;;;;2.67;1.60;;;17.90;99.90;;;;;;4989632;28;20536;-50
2021/08/04 08:29:40;;;;;;;1.40;1.02;;;17.80;99.90;;;;;;4986648;28;20066;-52
2021/08/04 08:32:06;;;;;;;1.88;1.40;;;17.80;99.90;;;;;;4989076;28;20126;-51
2021/08/04 08:34:32;;;;;;;2.13;1.23;;;17.70;99.90;;;;;;4983929;28;20073;-52
2021/08/04 08:36:57;;;;;;;5.68;1.65;;;17.70;99.90;;;;;;4981301;28;20122;-54
2021/08/04 08:39:23;;;;;;;2.17;1.08;;;17.70;99.90;;;;;;4981475;28;20034;-54
2021/08/04 08:41:49;;;;;;;1.13;0.98;;;17.70;99.90;;;;;;4989778;28;20054;-49
2021/08/04 08:44:14;;;;;;;1.10;1.00;;;17.70;99.90;;;;;;4984560;28;20023;-52
2021/08/04 08:46:40;;;;;;;3.15;1.30;;;17.80;99.90;;;;;;4996806;28;20069;-51
2021/08/04 08:49:07;;;;;;;2.08;1.20;;;17.70;99.90;;;;;;4990118;28;20085;-51
2021/08/04 08:51:33;;;;;;;2.13;1.05;;;17.80;99.90;;;;;;4988875;28;20037;-55
2021/08/04 08:53:58;;;;;;;3.33;1.60;;;17.80;99.90;;;;;;4979777;28;20035;-55
2021/08/04 08:56:24;;;;;;;1.45;1.35;;;17.80;99.90;;;;;;4975675;28;20023;-53
2021/08/04 08:58:52;;;;;;;1.48;1.20;;;17.80;99.90;;;;;;4972704;28;20515;-52
2021/08/04 09:01:18;;;;;;;1.67;1.27;;;17.80;99.90;;;;;;4978193;28;20034;-56
2021/08/04 09:03:44;;;;;;;2.50;1.35;;;17.80;99.90;;;;;;4985193;28;20522;-52
2021/08/04 09:06:10;;;;;;;1.23;1.13;;;17.80;99.90;;;;;;4987167;28;20393;-51
2021/08/04 09:08:37;;;;;;;4.25;1.13;;;17.80;99.90;;;;;;4988113;28;20480;-54
2021/08/04 09:11:29;;;;;;;1.60;1.15;;;17.90;99.90;;;;;;4987871;28;20519;-50
2021/08/04 09:14:05;;;;;;;2.25;1.10;;;17.90;99.90;;;;;;4983140;28;20206;-54
2021/08/04 09:16:33;;;;;;;2.75;1.20;;;18.00;99.90;;;;;;4985079;28;20026;-54
2021/08/04 09:18:59;;;;;;;4.22;1.20;;;18.10;99.90;;;;;;4989953;28;20076;-54
2021/08/04 09:21:25;;;;;;;1.63;0.90;;;18.20;99.90;;;;;;4983115;28;20779;-50
2021/08/04 09:23:53;;;;;;;3.22;1.55;;;18.20;99.90;;;;;;4986678;28;20037;-57
2021/08/04 09:26:24;;;;;;;2.85;1.30;;;18.30;99.90;;;;;;4989448;28;20022;-57
2021/08/04 09:28:55;;;;;;;1.27;1.17;;;18.40;99.90;;;;;;4984310;28;20607;-54
2021/08/04 09:31:41;;;;;;;1.73;1.15;;;18.50;99.90;;;;;;4975561;28;20069;-54
2021/08/04 09:34:26;;;;;;;2.07;1.23;;;18.50;99.90;;;;;;4989303;28;20014;-55
2021/08/04 09:37:03;;;;;;;3.75;1.33;;;18.70;99.90;;;;;;4989216;28;20026;-54
2021/08/04 09:39:29;;;;;;;2.35;1.20;;;18.80;99.90;;;;;;4986919;28;20061;-55
2021/08/04 09:41:54;;;;;;;1.60;1.10;;;18.80;99.90;;;;;;4987627;28;20050;-53
2021/08/04 09:44:21;;;;;;;2.72;1.13;;;19.00;99.90;;;;;;4987861;28;20129;-54
2021/08/04 09:46:47;;;;;;;1.58;1.02;;;19.10;99.90;;;;;;4988861;28;20465;-54
2021/08/04 09:49:17;;;;;;;2.17;1.02;;;19.10;99.90;;;;;;4987534;28;20033;-52
2021/08/04 09:51:44;;;;;;;1.15;1.05;;;19.30;99.90;;;;;;4985142;28;20026;-54
2021/08/04 09:54:12;;;;;;;2.00;1.15;;;19.30;99.90;;;;;;4988323;28;20030;-50
2021/08/04 09:56:49;;;;;;;2.10;1.23;;;19.30;99.90;;;;;;4988825;28;20034;-55
2021/08/04 09:59:15;;;;;;;2.38;1.38;;;19.30;99.90;;;;;;4983869;28;20019;-55
2021/08/04 10:01:41;;;;;;;1.50;1.20;;;19.30;99.90;;;;;;4983137;28;20033;-56
2021/08/04 10:04:09;;;;;;;3.70;1.50;;;19.30;99.90;;;;;;4988884;28;20018;-55
2021/08/04 10:06:37;;;;;;;1.38;1.27;;;19.40;99.90;;;;;;4982860;28;20041;-54
2021/08/04 10:09:04;;;;;;;1.45;1.30;;;19.40;99.90;;;;;;4987237;28;20062;-56
2021/08/04 10:11:30;;;;;;;6.60;1.92;;;19.50;99.90;;;;;;4983870;28;20102;-53
2021/08/04 10:13:57;;;;;;;1.77;1.20;;;19.60;99.90;;;;;;4987015;28;20453;-55
2021/08/04 10:16:28;;;;;;;1.95;1.50;;;19.70;99.90;;;;;;4983957;28;20110;-52
2021/08/04 10:18:54;;;;;;;1.27;1.17;;;19.90;99.90;;;;;;4986038;28;20026;-52
2021/08/04 10:21:20;;;;;;;2.65;1.30;;;20.00;99.90;;;;;;4986670;28;20078;-50
2021/08/04 10:23:48;;;;;;;1.98;1.70;;;20.10;99.90;;;;;;4985398;28;20404;-49
2021/08/04 10:26:16;;;;;;;1.23;1.13;;;20.30;99.90;;;;;;4987355;28;20023;-53
2021/08/04 10:28:43;;;;;;;4.50;1.50;;;20.40;99.90;;;;;;4984660;28;20035;-54
2021/08/04 10:31:10;;;;;;;1.65;1.30;;;20.50;99.90;;;;;;4988107;28;20031;-52
2021/08/04 10:33:38;;;;;;;1.63;1.42;;;20.40;99.90;;;;;;4979607;28;20030;-54
2021/08/04 10:36:07;;;;;;;3.00;1.30;;;20.50;99.90;;;;;;4979005;28;20061;-54
2021/08/04 10:38:34;;;;;;;2.03;1.35;;;20.50;99.90;;;;;;4987746;28;20045;-55
2021/08/04 10:41:20;;;;;;;1.83;1.23;;;20.70;99.90;;;;;;4987920;28;20579;-55
2021/08/04 10:43:48;;;;;;;2.78;1.40;;;20.80;99.90;;;;;;4987999;28;20034;-56
2021/08/04 10:46:29;;;;;;;1.52;1.42;;;20.90;99.90;;;;;;4987828;28;20048;-55
2021/08/04 10:48:58;;;;;;;1.25;1.13;;;21.00;99.90;;;;;;4987705;28;20455;-56
2021/08/04 10:51:24;;;;;;;2.17;1.40;;;21.10;99.90;;;;;;4987891;28;20018;-53
2021/08/04 10:54:02;;;;;;;3.67;1.40;;;21.30;99.90;;;;;;4988556;28;20178;-57
2021/08/04 10:56:37;;;;;;;1.55;1.45;;;21.40;99.90;;;;;;4978473;28;20447;-54
2021/08/04 10:59:08;;;;;;;2.08;1.30;;;21.50;99.90;;;;;;4988292;28;20026;-52
2021/08/04 11:01:55;;;;;;;2.70;1.40;;;21.50;99.90;;;;;;4978847;28;20029;-55
2021/08/04 11:04:29;;;;;;;1.98;1.02;;;21.50;99.90;;;;;;4987407;28;20031;-54
2021/08/04 11:07:07;;;;;;;1.25;1.15;;;21.70;99.90;;;;;;4987392;28;20030;-53
2021/08/04 11:09:36;;;;;;;2.35;1.25;;;22.10;99.90;;;;;;5001537;23;20047;-53
2021/08/04 11:12:06;;;;;;;3.15;1.23;;;22.40;99.90;;;;;;4967411;28;20057;-54
2021/08/04 11:14:43;;;;;;;1.65;1.38;;;22.60;99.90;;;;;;4967648;28;20030;-51
2021/08/04 11:17:27;;;;;;;2.60;1.50;;;22.40;99.90;;;;;;4967968;28;20470;-52
2021/08/04 11:20:06;;;;;;;2.30;1.35;;;22.20;99.90;;;;;;4964389;28;20174;-52
2021/08/04 11:22:41;;;;;;;1.60;1.00;;;22.20;99.90;;;;;;4969765;28;20089;-53
2021/08/04 11:25:33;;;;;;;2.05;1.17;;;22.20;99.90;;;;;;4967701;28;20031;-51
2021/08/04 11:27:58;;;;;;;1.25;1.15;;;22.00;99.90;;;;;;4976739;28;20058;-52
2021/08/04 11:30:31;;;;;;;2.78;1.65;;;22.00;99.90;;;;;;4972358;28;20504;-51
2021/08/04 11:33:19;;;;;;;1.35;1.25;;;21.90;99.90;;;;;;4982876;28;20027;-51
2021/08/04 11:36:21;;;;;;;1.40;1.27;;;21.90;99.90;;;;;;4970028;28;20035;-55
2021/08/04 11:38:55;;;;;;;3.38;1.55;;;22.00;99.90;;;;;;4885535;29;20077;-51
2021/08/04 11:41:26;;;;;;;1.70;1.23;;;22.00;99.90;;;;;;4959711;28;20045;-54
2021/08/04 11:43:59;;;;;;;2.90;1.00;;;21.80;99.90;;;;;;4968440;28;20085;-52
2021/08/04 11:46:38;;;;;;;2.45;1.10;;;21.60;99.90;;;;;;4972553;28;20033;-54
2021/08/04 11:49:14;;;;;;;1.05;0.90;;;21.50;99.80;;;;;;4970873;28;20054;-51
2021/08/04 11:51:51;;;;;;;1.25;0.93;;;21.40;99.90;;;;;;4973030;28;20045;-51
2021/08/04 11:54:30;;;;;;;1.20;1.15;;;21.40;99.80;;;;;;4964600;28;20504;-52
2021/08/04 11:56:55;;;;;;;2.45;1.00;;;21.50;99.90;;;;;;4972432;28;20034;-51
2021/08/04 11:59:21;;;;;;;1.80;1.08;;;21.50;99.90;;;;;;4977774;28;20039;-54
2021/08/04 12:02:13;;;;;;;1.30;1.00;;;21.50;99.90;;;;;;4972827;28;20124;-51
2021/08/04 12:04:51;;;;;;;1.02;0.90;;;21.60;99.10;;;;;;4965599;28;20041;-51
2021/08/04 12:07:17;;;;;;;2.35;1.70;;;21.70;99.50;;;;;;4969099;28;20023;-51
2021/08/04 12:09:44;;;;;;;2.30;1.02;;;21.60;98.90;;;;;;4963238;28;20023;-51
2021/08/04 12:12:19;;;;;;;3.35;1.10;;;21.60;99.90;;;;;;4983511;28;20023;-55
2021/08/04 12:14:46;;;;;;;0.90;0.73;;;21.60;99.90;;;;;;4970060;28;20169;-51
2021/08/04 12:17:20;;;;;;;1.00;0.90;;;21.70;99.90;;;;;;4969854;28;20034;-55
2021/08/04 12:19:48;;;;;;;1.17;1.08;;;21.80;99.20;;;;;;4967104;28;20111;-51
2021/08/04 12:22:28;;;;;;;3.33;1.00;;;21.90;98.80;;;;;;4965089;28;20070;-52
2021/08/04 12:24:56;;;;;;;2.67;0.93;;;21.70;99.70;;;;;;4966863;28;20088;-56
2021/08/04 12:27:40;;;;;;;2.45;1.38;;;21.80;99.80;;;;;;4971086;28;20029;-57
2021/08/04 12:30:09;;;;;;;1.20;1.10;;;21.80;98.20;;;;;;4974033;28;20023;-50
2021/08/04 12:36:07;;;;;;;1.42;1.05;;;21.80;98.80;;;;;;4934544;28;20122;-51
2021/08/04 12:38:39;;;;;;;3.30;0.98;;;21.80;99.10;;;;;;4965448;28;20019;-50
2021/08/04 12:41:07;;;;;;;1.98;1.20;;;21.80;99.80;;;;;;4967799;28;20019;-52
2021/08/04 12:43:36;;;;;;;1.40;1.30;;;21.90;99.90;;;;;;4963768;28;20027;-52
2021/08/04 12:46:03;;;;;;;2.40;1.13;;;22.00;99.90;;;;;;4976201;28;20034;-53
2021/08/04 12:48:48;;;;;;;3.00;1.25;;;22.10;99.90;;;;;;4972084;28;20022;-56
2021/08/04 12:51:23;;;;;;;1.55;0.98;;;22.10;99.90;;;;;;4976074;28;20455;-55
2021/08/04 12:53:55;;;;;;;0.95;0.95;;;22.10;99.90;;;;;;4967838;28;20030;-52
2021/08/04 12:56:29;;;;;;;2.63;1.23;;;22.10;99.90;;;;;;4975483;28;20037;-54
2021/08/04 12:58:57;;;;;;;1.13;0.80;;;22.20;99.90;;;;;;4979293;28;20077;-55
2021/08/04 13:01:28;;;;;;;4.50;1.20;;;22.30;99.90;;;;;;4978230;28;20077;-54